createdAt,value
2019-03-31T00:01:48.212Z,14.01
2019-03-31T00:04:17.876Z,14.04
2019-03-31T00:06:47.545Z,14.12
2019-03-31T00:09:17.198Z,13.95
2019-03-31T00:11:46.891Z,14.00
2019-03-31T00:14:16.559Z,13.97
2019-03-31T00:16:46.229Z,14.05
2019-03-31T00:19:15.884Z,14.05
2019-03-31T00:21:46.760Z,13.97
2019-03-31T00:24:16.430Z,13.81
2019-03-31T00:26:46.241Z,13.55
2019-03-31T00:29:15.906Z,13.68
2019-03-31T00:31:45.640Z,13.79
2019-03-31T00:34:15.314Z,13.78
2019-03-31T00:36:46.543Z,13.85
2019-03-31T00:39:16.186Z,13.80
2019-03-31T00:41:45.841Z,13.67
2019-03-31T00:44:15.702Z,13.65
2019-03-31T00:46:45.368Z,13.43
2019-03-31T00:49:16.486Z,13.47
2019-03-31T00:51:47.704Z,13.50
2019-03-31T00:54:17.355Z,13.80
2019-03-31T00:56:48.186Z,13.89
2019-03-31T00:59:17.845Z,14.01
2019-03-31T01:01:49.324Z,14.03
2019-03-31T01:04:20.981Z,13.91
2019-03-31T01:06:54.016Z,13.57
2019-03-31T01:09:29.450Z,13.73
2019-03-31T01:11:59.762Z,13.90
2019-03-31T01:14:29.828Z,13.60
2019-03-31T01:17:00.577Z,13.63
2019-03-31T01:19:32.038Z,13.18
2019-03-31T01:22:01.768Z,13.50
2019-03-31T01:24:31.497Z,13.63
2019-03-31T01:27:01.246Z,13.17
2019-03-31T01:29:31.123Z,12.90
2019-03-31T01:32:01.113Z,12.78
2019-03-31T01:34:30.862Z,13.13
2019-03-31T01:37:00.521Z,13.11
2019-03-31T01:39:31.712Z,13.14
2019-03-31T01:42:01.454Z,13.17
2019-03-31T01:44:31.188Z,13.13
2019-03-31T01:47:00.914Z,13.13
2019-03-31T01:49:30.575Z,13.01
2019-03-31T01:52:00.353Z,13.02
2019-03-31T01:54:30.081Z,12.89
2019-03-31T01:56:59.755Z,12.98
2019-03-31T01:59:29.410Z,13.07
2019-03-31T02:02:04.516Z,13.00
2019-03-31T02:04:30.441Z,13.43
2019-03-31T02:07:00.180Z,13.15
2019-03-31T02:09:29.835Z,12.77
2019-03-31T02:11:59.620Z,12.52
2019-03-31T02:14:30.508Z,12.33
2019-03-31T02:17:00.174Z,12.77
2019-03-31T02:19:29.824Z,12.80
2019-03-31T02:21:59.555Z,12.90
2019-03-31T02:24:29.212Z,13.05
2019-03-31T02:27:01.661Z,13.15
2019-03-31T02:29:31.312Z,13.25
2019-03-31T02:32:01.057Z,13.25
2019-03-31T02:34:30.707Z,13.15
2019-03-31T02:37:00.361Z,12.94
2019-03-31T02:39:30.089Z,13.01
2019-03-31T02:42:00.047Z,12.96
2019-03-31T02:44:29.719Z,12.77
2019-03-31T02:47:01.470Z,12.60
2019-03-31T02:49:31.142Z,12.41
2019-03-31T02:52:01.038Z,12.52
2019-03-31T02:54:30.839Z,12.61
2019-03-31T02:57:00.769Z,12.49
2019-03-31T02:59:33.253Z,12.20
2019-03-31T03:02:03.444Z,11.86
2019-03-31T03:04:35.737Z,11.54
2019-03-31T03:07:06.301Z,11.40
2019-03-31T03:09:39.781Z,11.46
2019-03-31T03:12:11.687Z,11.49
2019-03-31T03:14:42.782Z,11.62
2019-03-31T03:17:12.439Z,12.03
2019-03-31T03:19:42.102Z,12.19
2019-03-31T03:22:12.918Z,11.98
2019-03-31T03:24:42.579Z,11.95
2019-03-31T03:27:13.039Z,11.79
2019-03-31T03:29:42.691Z,11.46
2019-03-31T03:32:12.518Z,11.23
2019-03-31T03:34:42.198Z,11.19
2019-03-31T03:37:14.462Z,11.15
2019-03-31T03:39:44.126Z,11.41
2019-03-31T03:42:14.054Z,11.46
2019-03-31T03:44:43.717Z,11.28
2019-03-31T03:47:13.375Z,11.22
2019-03-31T03:49:43.110Z,11.51
2019-03-31T03:52:12.792Z,11.84
2019-03-31T03:54:42.490Z,11.84
2019-03-31T03:57:12.131Z,12.02
2019-03-31T03:59:41.798Z,11.82
2019-03-31T04:02:11.453Z,11.90
2019-03-31T04:04:42.640Z,11.61
2019-03-31T04:07:12.303Z,11.86
2019-03-31T04:09:42.067Z,11.47
2019-03-31T04:12:11.724Z,11.13
2019-03-31T04:14:41.389Z,11.44
2019-03-31T04:17:11.214Z,11.39
2019-03-31T04:19:40.866Z,11.45
2019-03-31T04:22:10.857Z,11.63
2019-03-31T04:24:40.537Z,11.76
2019-03-31T04:27:10.186Z,11.84
2019-03-31T04:29:39.896Z,11.56
2019-03-31T04:32:11.131Z,11.62
2019-03-31T04:34:40.852Z,11.38
2019-03-31T04:37:10.511Z,11.61
2019-03-31T04:39:40.182Z,11.51
2019-03-31T04:42:09.846Z,11.36
2019-03-31T04:44:39.504Z,11.06
2019-03-31T04:47:10.716Z,10.93
2019-03-31T04:49:40.383Z,11.18
2019-03-31T04:52:10.034Z,11.32
2019-03-31T04:54:39.705Z,11.27
2019-03-31T04:57:09.363Z,11.47
2019-03-31T04:59:39.033Z,11.69
2019-03-31T05:02:08.687Z,11.80
2019-03-31T05:04:38.392Z,11.65
2019-03-31T05:07:08.043Z,11.72
2019-03-31T05:09:37.712Z,10.97
2019-03-31T05:12:07.349Z,11.19
2019-03-31T05:14:36.991Z,11.01
2019-03-31T05:17:06.639Z,10.86
2019-03-31T05:19:36.327Z,11.04
2019-03-31T05:22:06.057Z,10.44
2019-03-31T05:24:35.711Z,10.44
2019-03-31T05:27:05.506Z,11.11
2019-03-31T05:29:35.156Z,11.33
2019-03-31T05:32:04.875Z,11.62
2019-03-31T05:34:36.043Z,11.65
2019-03-31T05:37:05.788Z,11.74
2019-03-31T05:39:35.445Z,11.82
2019-03-31T05:42:06.648Z,11.90
2019-03-31T05:44:36.302Z,11.96
2019-03-31T05:47:05.970Z,12.01
2019-03-31T05:49:35.635Z,11.91
2019-03-31T05:52:05.359Z,11.87
2019-03-31T05:54:35.273Z,11.89
2019-03-31T05:57:05.077Z,11.86
2019-03-31T05:59:34.730Z,11.61
2019-03-31T06:02:04.551Z,11.30
2019-03-31T06:04:34.204Z,11.14
2019-03-31T06:07:03.875Z,11.35
2019-03-31T06:09:33.530Z,11.68
2019-03-31T06:12:03.186Z,11.96
2019-03-31T06:14:36.473Z,12.10
2019-03-31T06:17:06.228Z,12.17
2019-03-31T06:19:35.884Z,12.01
2019-03-31T06:22:05.625Z,12.09
2019-03-31T06:24:35.278Z,12.18
2019-03-31T06:27:04.933Z,12.29
2019-03-31T06:29:34.602Z,12.35
2019-03-31T06:32:04.325Z,12.28
2019-03-31T06:34:46.772Z,12.45
2019-03-31T06:37:05.380Z,12.34
2019-03-31T06:39:35.087Z,12.45
2019-03-31T06:42:04.814Z,12.63
2019-03-31T06:44:37.898Z,12.80
2019-03-31T06:47:05.857Z,12.90
2019-03-31T06:49:35.532Z,12.94
2019-03-31T06:52:05.253Z,13.07
2019-03-31T06:54:35.732Z,13.01
2019-03-31T06:57:05.438Z,13.15
2019-03-31T06:59:37.399Z,13.16
2019-03-31T07:02:07.147Z,13.27
2019-03-31T07:04:36.877Z,13.31
2019-03-31T07:07:06.544Z,13.43
2019-03-31T07:09:37.304Z,13.58
2019-03-31T07:12:06.994Z,13.66
2019-03-31T07:14:36.642Z,13.74
2019-03-31T07:17:06.432Z,13.89
2019-03-31T07:19:36.088Z,14.04
2019-03-31T07:22:05.754Z,14.13
2019-03-31T07:24:35.421Z,14.11
2019-03-31T07:27:05.108Z,13.77
2019-03-31T07:29:34.772Z,14.12
2019-03-31T07:32:04.429Z,14.28
2019-03-31T07:34:34.099Z,14.30
2019-03-31T07:37:04.816Z,14.28
2019-03-31T07:39:34.633Z,14.29
2019-03-31T07:42:04.404Z,14.27
2019-03-31T07:44:34.240Z,14.42
2019-03-31T07:47:03.913Z,14.26
2019-03-31T07:49:33.586Z,14.32
2019-03-31T07:52:05.546Z,14.20
2019-03-31T07:54:35.189Z,14.21
2019-03-31T07:57:07.197Z,14.21
2019-03-31T07:59:36.944Z,14.02
2019-03-31T08:02:06.606Z,14.05
2019-03-31T08:04:36.249Z,14.39
2019-03-31T08:07:05.914Z,14.60
2019-03-31T08:09:35.572Z,14.62
2019-03-31T08:12:05.248Z,14.84
2019-03-31T08:14:34.921Z,15.08
2019-03-31T08:17:04.753Z,15.07
2019-03-31T08:19:34.404Z,15.14
2019-03-31T08:22:04.446Z,15.34
2019-03-31T08:24:35.738Z,15.35
2019-03-31T08:27:05.765Z,15.51
2019-03-31T08:29:35.440Z,15.76
2019-03-31T08:32:05.181Z,15.81
2019-03-31T08:34:36.393Z,15.86
2019-03-31T08:37:06.063Z,16.00
2019-03-31T08:39:35.740Z,16.12
2019-03-31T08:42:05.471Z,15.82
2019-03-31T08:44:35.133Z,15.84
2019-03-31T08:47:05.563Z,15.90
2019-03-31T08:49:35.296Z,15.98
2019-03-31T08:52:08.044Z,16.10
2019-03-31T08:54:37.705Z,16.21
2019-03-31T08:57:07.530Z,16.24
2019-03-31T08:59:37.183Z,16.39
2019-03-31T09:02:23.677Z,16.44
2019-03-31T09:04:53.332Z,16.43
2019-03-31T09:07:25.039Z,16.50
2019-03-31T09:09:54.423Z,16.52
2019-03-31T09:12:24.091Z,16.66
2019-03-31T09:14:53.763Z,16.63
2019-03-31T09:17:24.902Z,16.74
2019-03-31T09:19:54.576Z,16.81
2019-03-31T09:22:25.786Z,16.88
2019-03-31T09:24:55.442Z,16.94
2019-03-31T09:27:25.117Z,17.03
2019-03-31T09:29:54.787Z,17.14
2019-03-31T09:32:24.470Z,17.22
2019-03-31T09:34:54.135Z,17.20
2019-03-31T09:37:25.498Z,17.43
2019-03-31T09:39:55.196Z,17.47
2019-03-31T09:42:24.846Z,17.50
2019-03-31T09:44:54.521Z,17.59
2019-03-31T09:47:24.189Z,17.61
2019-03-31T09:49:53.872Z,17.67
2019-03-31T09:52:23.629Z,17.72
2019-03-31T09:54:53.287Z,17.68
2019-03-31T09:57:22.950Z,17.81
2019-03-31T09:59:52.629Z,17.83
2019-03-31T10:02:22.299Z,17.95
2019-03-31T10:04:51.957Z,17.99
2019-03-31T10:07:23.870Z,18.14
2019-03-31T10:09:53.399Z,18.11
2019-03-31T10:12:23.065Z,18.29
2019-03-31T10:14:54.252Z,18.31
2019-03-31T10:17:24.078Z,18.51
2019-03-31T10:19:55.278Z,18.30
2019-03-31T10:22:24.954Z,18.46
2019-03-31T10:24:54.619Z,18.36
2019-03-31T10:27:24.273Z,18.54
2019-03-31T10:29:55.147Z,18.73
2019-03-31T10:32:24.872Z,18.59
2019-03-31T10:34:54.628Z,18.89
2019-03-31T10:37:26.584Z,19.00
2019-03-31T10:39:56.252Z,19.32
2019-03-31T10:42:25.969Z,19.23
2019-03-31T10:44:55.639Z,19.29
2019-03-31T10:47:25.314Z,19.28
2019-03-31T10:49:54.981Z,19.21
2019-03-31T10:52:24.711Z,19.10
2019-03-31T10:54:54.371Z,19.26
2019-03-31T10:57:24.050Z,19.38
2019-03-31T10:59:55.251Z,19.36
2019-03-31T11:02:24.998Z,19.44
2019-03-31T11:04:54.644Z,19.53
2019-03-31T11:07:24.382Z,20.07
2019-03-31T11:09:54.051Z,20.05
2019-03-31T11:12:23.800Z,20.17
2019-03-31T11:14:53.492Z,20.27
2019-03-31T11:17:23.153Z,20.30
2019-03-31T11:19:52.832Z,20.24
2019-03-31T11:22:29.901Z,20.39
2019-03-31T11:24:59.635Z,20.24
2019-03-31T11:27:29.773Z,20.53
2019-03-31T11:30:00.957Z,20.55
2019-03-31T11:32:31.993Z,20.61
2019-03-31T11:35:01.671Z,20.66
2019-03-31T11:37:31.361Z,20.35
2019-03-31T11:40:01.033Z,20.51
2019-03-31T11:42:30.681Z,20.82
2019-03-31T11:45:00.448Z,20.93
2019-03-31T11:47:30.085Z,21.20
2019-03-31T11:49:59.761Z,21.01
2019-03-31T11:52:29.435Z,21.53
2019-03-31T11:55:00.436Z,21.85
2019-03-31T11:57:30.136Z,21.41
2019-03-31T11:59:59.806Z,21.38
2019-03-31T12:02:29.540Z,21.20
2019-03-31T12:04:59.211Z,21.44
2019-03-31T12:07:28.872Z,20.99
2019-03-31T12:09:59.563Z,20.92
2019-03-31T12:12:29.286Z,20.84
2019-03-31T12:15:00.659Z,20.36
2019-03-31T12:17:30.325Z,20.37
2019-03-31T12:20:00.534Z,20.57
2019-03-31T12:22:30.301Z,20.36
2019-03-31T12:25:00.032Z,20.23
2019-03-31T12:27:29.691Z,20.34
2019-03-31T12:29:59.352Z,20.59
2019-03-31T12:32:29.027Z,20.78
2019-03-31T12:34:58.791Z,20.67
2019-03-31T12:37:41.795Z,20.77
2019-03-31T12:40:01.520Z,21.04
2019-03-31T12:42:31.195Z,21.50
2019-03-31T12:45:00.853Z,21.54
2019-03-31T12:47:30.695Z,21.77
2019-03-31T12:50:00.380Z,21.79
2019-03-31T12:52:30.021Z,21.77
2019-03-31T12:54:59.700Z,21.60
2019-03-31T12:57:29.377Z,22.22
2019-03-31T13:00:00.547Z,22.55
2019-03-31T13:02:30.233Z,22.67
2019-03-31T13:04:59.878Z,22.38
2019-03-31T13:07:29.551Z,22.44
2019-03-31T13:09:59.229Z,22.66
2019-03-31T13:12:28.885Z,22.19
2019-03-31T13:14:58.568Z,22.33
2019-03-31T13:17:28.303Z,22.87
2019-03-31T13:19:57.977Z,23.24
2019-03-31T13:22:28.710Z,23.12
2019-03-31T13:25:02.024Z,23.48
2019-03-31T13:27:31.304Z,23.53
2019-03-31T13:30:00.982Z,23.76
2019-03-31T13:32:30.635Z,23.23
2019-03-31T13:35:00.367Z,23.27
2019-03-31T13:37:30.038Z,23.41
2019-03-31T13:39:59.703Z,23.65
2019-03-31T13:42:29.362Z,24.29
2019-03-31T13:44:59.073Z,23.91
2019-03-31T13:47:28.721Z,24.10
2019-03-31T13:49:58.385Z,23.77
2019-03-31T13:52:28.048Z,23.79
2019-03-31T13:54:57.716Z,24.30
2019-03-31T13:57:27.997Z,23.88
2019-03-31T13:59:58.773Z,23.73
2019-03-31T14:02:28.747Z,23.32
2019-03-31T14:04:58.422Z,23.20
2019-03-31T14:07:28.104Z,22.77
2019-03-31T14:09:57.758Z,23.43
2019-03-31T14:12:27.416Z,24.50
2019-03-31T14:14:57.090Z,25.62
2019-03-31T14:17:26.740Z,25.75
2019-03-31T14:19:56.411Z,25.77
2019-03-31T14:22:27.147Z,26.14
2019-03-31T14:24:56.782Z,26.39
2019-03-31T14:27:26.441Z,25.51
2019-03-31T14:29:56.116Z,25.76
2019-03-31T14:32:29.243Z,26.66
2019-03-31T14:34:58.920Z,27.94
2019-03-31T14:37:28.568Z,31.18
2019-03-31T14:39:58.275Z,34.73
2019-03-31T14:42:28.524Z,39.12
2019-03-31T14:44:58.869Z,39.16
2019-03-31T14:47:29.118Z,39.23
2019-03-31T14:49:59.390Z,39.67
2019-03-31T14:52:29.734Z,39.40
2019-03-31T14:54:59.641Z,40.61
2019-03-31T14:57:29.588Z,41.75
2019-03-31T15:00:13.604Z,40.38
2019-03-31T15:02:31.416Z,40.67
2019-03-31T15:05:01.342Z,37.87
2019-03-31T15:07:31.359Z,42.27
2019-03-31T15:10:01.366Z,41.42
2019-03-31T15:12:32.482Z,37.11
2019-03-31T15:15:03.368Z,30.57
2019-03-31T15:17:34.357Z,27.77
2019-03-31T15:20:06.680Z,26.84
2019-03-31T15:22:37.341Z,26.32
2019-03-31T15:25:08.901Z,29.90
2019-03-31T15:27:40.258Z,33.24
2019-03-31T15:30:12.299Z,32.19
2019-03-31T15:32:42.566Z,29.63
2019-03-31T15:35:14.439Z,30.29
2019-03-31T15:37:44.703Z,32.25
2019-03-31T15:40:15.026Z,32.35
2019-03-31T15:42:45.361Z,33.25
2019-03-31T15:45:15.681Z,33.20
2019-03-31T15:47:45.944Z,33.95
2019-03-31T15:50:16.708Z,32.00
2019-03-31T15:52:48.024Z,29.93
2019-03-31T15:55:18.352Z,30.12
2019-03-31T15:57:48.606Z,29.64
2019-03-31T16:00:19.504Z,28.56
2019-03-31T16:03:09.095Z,28.38
2019-03-31T16:05:39.328Z,28.29
2019-03-31T16:08:11.303Z,27.61
2019-03-31T16:10:41.567Z,28.14
2019-03-31T16:13:11.237Z,25.05
2019-03-31T16:15:40.972Z,23.61
2019-03-31T16:18:10.625Z,22.65
2019-03-31T16:20:40.302Z,22.31
2019-03-31T16:23:09.957Z,21.09
2019-03-31T16:25:41.269Z,20.30
2019-03-31T16:28:10.933Z,19.87
2019-03-31T16:30:40.614Z,19.68
2019-03-31T16:33:10.279Z,19.19
2019-03-31T16:35:39.958Z,19.27
2019-03-31T16:38:09.697Z,19.27
2019-03-31T16:40:39.402Z,19.04
2019-03-31T16:43:09.074Z,18.77
2019-03-31T16:45:38.739Z,18.78
2019-03-31T16:48:08.408Z,18.52
2019-03-31T16:50:38.107Z,18.29
2019-03-31T16:53:07.780Z,18.20
2019-03-31T16:55:37.449Z,18.22
2019-03-31T16:58:09.414Z,18.23
2019-03-31T17:00:38.498Z,18.04
2019-03-31T17:03:09.705Z,17.96
2019-03-31T17:05:40.620Z,18.24
2019-03-31T17:08:10.304Z,17.87
2019-03-31T17:10:40.028Z,17.67
2019-03-31T17:13:09.701Z,17.60
2019-03-31T17:15:39.378Z,17.66
2019-03-31T17:18:09.080Z,17.36
2019-03-31T17:20:38.825Z,17.25
2019-03-31T17:23:09.555Z,17.39
2019-03-31T17:25:39.241Z,17.45
2019-03-31T17:28:10.264Z,17.46
2019-03-31T17:30:41.729Z,17.54
2019-03-31T17:33:11.438Z,17.54
2019-03-31T17:35:42.577Z,17.41
2019-03-31T17:38:12.255Z,17.38
2019-03-31T17:40:41.922Z,17.06
2019-03-31T17:43:11.630Z,16.94
2019-03-31T17:45:42.845Z,17.09
2019-03-31T17:48:12.589Z,17.16
2019-03-31T17:50:42.243Z,16.89
2019-03-31T17:53:11.918Z,16.78
2019-03-31T17:55:42.243Z,16.72
2019-03-31T17:58:11.953Z,16.55
2019-03-31T18:00:44.444Z,16.48
2019-03-31T18:03:15.706Z,16.39
2019-03-31T18:05:45.454Z,16.50
2019-03-31T18:08:15.117Z,16.43
2019-03-31T18:10:44.802Z,16.21
2019-03-31T18:13:14.490Z,16.05
2019-03-31T18:15:44.218Z,16.02
2019-03-31T18:18:13.902Z,16.09
2019-03-31T18:20:43.555Z,15.86
2019-03-31T18:23:14.442Z,15.80
2019-03-31T18:25:44.118Z,15.79
2019-03-31T18:28:15.318Z,15.51
2019-03-31T18:30:45.267Z,15.42
2019-03-31T18:33:16.871Z,15.50
2019-03-31T18:35:46.579Z,15.47
2019-03-31T18:38:16.236Z,15.27
2019-03-31T18:40:46.572Z,15.19
2019-03-31T18:43:16.227Z,15.33
2019-03-31T18:45:45.964Z,15.18
2019-03-31T18:48:15.637Z,15.15
2019-03-31T18:50:45.333Z,15.11
2019-03-31T18:53:22.823Z,14.82
2019-03-31T18:55:56.903Z,14.77
2019-03-31T18:58:28.222Z,14.71
2019-03-31T19:00:59.541Z,14.69
2019-03-31T19:03:42.220Z,14.54
2019-03-31T19:06:22.818Z,14.58
2019-03-31T19:08:54.139Z,14.41
2019-03-31T19:11:31.606Z,14.55
2019-03-31T19:14:15.039Z,14.47
2019-03-31T19:17:04.129Z,14.37
2019-03-31T19:19:33.580Z,14.35
2019-03-31T19:22:05.508Z,14.38
2019-03-31T19:24:48.848Z,14.19
2019-03-31T19:27:20.150Z,14.15
2019-03-31T19:29:51.450Z,14.14
2019-03-31T19:32:28.763Z,14.08
2019-03-31T19:35:00.963Z,14.19
2019-03-31T19:37:50.643Z,13.93
2019-03-31T19:40:25.771Z,13.88
2019-03-31T19:42:59.505Z,13.72
2019-03-31T19:45:48.593Z,13.88
2019-03-31T19:48:26.721Z,13.78
2019-03-31T19:51:13.250Z,13.62
2019-03-31T19:53:53.240Z,13.60
2019-03-31T19:56:24.557Z,13.68
2019-03-31T19:59:11.989Z,13.69
2019-03-31T20:01:45.905Z,13.65
2019-03-31T20:04:27.172Z,13.41
2019-03-31T20:07:14.845Z,13.44
2019-03-31T20:09:44.215Z,13.35
2019-03-31T20:12:21.369Z,13.38
2019-03-31T20:14:59.490Z,13.25
2019-03-31T20:17:33.210Z,13.24
2019-03-31T20:20:06.107Z,13.20
2019-03-31T20:22:35.532Z,13.07
2019-03-31T20:25:23.285Z,13.06
2019-03-31T20:28:10.782Z,13.00
2019-03-31T20:30:45.090Z,12.96
2019-03-31T20:33:33.559Z,12.99
2019-03-31T20:36:22.511Z,13.11
2019-03-31T20:39:01.313Z,13.03
2019-03-31T20:41:36.773Z,13.10
2019-03-31T20:44:06.436Z,12.96
2019-03-31T20:46:36.112Z,12.97
2019-03-31T20:49:06.819Z,12.94
2019-03-31T20:51:38.212Z,12.91
2019-03-31T20:54:07.879Z,12.82
2019-03-31T20:56:37.565Z,12.77
2019-03-31T20:59:07.217Z,12.80
2019-03-31T21:01:36.893Z,12.75
2019-03-31T21:04:06.552Z,12.78
2019-03-31T21:06:36.758Z,12.72
2019-03-31T21:09:09.332Z,12.69
2019-03-31T21:11:39.009Z,12.67
2019-03-31T21:14:08.674Z,12.58
2019-03-31T21:16:38.347Z,12.54
2019-03-31T21:19:11.202Z,12.50
2019-03-31T21:21:40.855Z,12.45
2019-03-31T21:24:10.558Z,12.45
2019-03-31T21:26:40.234Z,12.40
2019-03-31T21:29:09.888Z,12.35
2019-03-31T21:31:39.575Z,12.34
2019-03-31T21:34:09.226Z,12.26
2019-03-31T21:36:38.896Z,12.36
2019-03-31T21:39:09.043Z,12.34
2019-03-31T21:41:38.799Z,12.28
2019-03-31T21:44:08.567Z,12.28
2019-03-31T21:46:38.231Z,12.33
2019-03-31T21:49:07.906Z,12.31
2019-03-31T21:51:37.642Z,12.23
2019-03-31T21:54:07.476Z,12.17
2019-03-31T21:56:37.150Z,12.14
2019-03-31T21:59:06.825Z,12.12
2019-03-31T22:01:36.496Z,12.14
2019-03-31T22:04:06.152Z,12.00
2019-03-31T22:06:35.898Z,11.94
2019-03-31T22:09:09.216Z,11.95
2019-03-31T22:11:38.897Z,12.06
2019-03-31T22:14:10.966Z,11.91
2019-03-31T22:16:40.611Z,12.23
2019-03-31T22:19:10.278Z,11.97
2019-03-31T22:21:39.994Z,11.96
2019-03-31T22:24:09.677Z,11.88
2019-03-31T22:26:39.345Z,11.82
2019-03-31T22:29:09.016Z,11.84
2019-03-31T22:31:38.670Z,11.78
2019-03-31T22:34:08.351Z,11.73
2019-03-31T22:36:38.088Z,11.88
2019-03-31T22:39:08.820Z,11.74
2019-03-31T22:41:38.485Z,11.90
2019-03-31T22:44:08.153Z,11.84
2019-03-31T22:46:37.817Z,11.65
2019-03-31T22:49:07.504Z,11.61
2019-03-31T22:51:37.178Z,11.58
2019-03-31T22:54:06.929Z,11.65
2019-03-31T22:56:36.623Z,11.47
2019-03-31T22:59:09.593Z,11.45
2019-03-31T23:01:37.723Z,11.37
2019-03-31T23:04:07.388Z,11.47
2019-03-31T23:06:37.056Z,11.31
2019-03-31T23:09:08.124Z,11.30
2019-03-31T23:11:37.799Z,11.27
2019-03-31T23:14:07.455Z,11.15
2019-03-31T23:16:37.107Z,11.20
2019-03-31T23:19:06.898Z,11.33
2019-03-31T23:21:36.597Z,11.23
2019-03-31T23:24:06.339Z,11.15
2019-03-31T23:26:35.994Z,11.21
2019-03-31T23:29:05.743Z,11.12
2019-03-31T23:31:35.406Z,11.18
2019-03-31T23:34:05.090Z,11.12
2019-03-31T23:36:34.775Z,11.09
2019-03-31T23:39:06.390Z,10.98
2019-03-31T23:41:36.047Z,11.06
2019-03-31T23:44:05.733Z,10.99
2019-03-31T23:46:35.389Z,10.90
2019-03-31T23:49:05.107Z,11.05
2019-03-31T23:51:34.770Z,11.20
2019-03-31T23:54:04.440Z,11.09
2019-03-31T23:56:34.461Z,11.16
2019-03-31T23:59:04.116Z,11.14
